createdAt,value
2019-01-24T00:02:13.418Z,74.00
2019-01-24T00:05:18.149Z,74.52
2019-01-24T00:08:22.618Z,74.48
2019-01-24T00:11:27.213Z,74.83
2019-01-24T00:14:31.935Z,73.89
2019-01-24T00:17:36.380Z,74.01
2019-01-24T00:20:40.832Z,73.88
2019-01-24T00:23:45.615Z,74.34
2019-01-24T00:26:50.055Z,74.61
2019-01-24T00:29:54.779Z,74.28
2019-01-24T00:32:59.227Z,74.26
2019-01-24T00:36:03.672Z,74.39
2019-01-24T00:39:09.270Z,75.13
2019-01-24T00:42:14.005Z,75.07
2019-01-24T00:45:19.038Z,75.26
2019-01-24T00:48:23.492Z,75.94
2019-01-24T00:51:27.939Z,75.45
2019-01-24T00:54:32.718Z,75.30
2019-01-24T00:57:37.447Z,75.21
2019-01-24T01:00:41.890Z,76.00
2019-01-24T01:03:46.345Z,76.10
2019-01-24T01:06:50.793Z,75.84
2019-01-24T01:09:55.245Z,75.79
2019-01-24T01:12:59.699Z,75.93
2019-01-24T01:16:04.308Z,75.54
2019-01-24T01:19:09.028Z,75.63
2019-01-24T01:22:13.759Z,74.44
2019-01-24T01:25:18.281Z,74.75
2019-01-24T01:28:22.778Z,75.85
2019-01-24T01:31:27.543Z,76.52
2019-01-24T01:34:36.231Z,76.02
2019-01-24T01:37:38.433Z,75.96
2019-01-24T01:40:43.165Z,76.03
2019-01-24T01:43:47.895Z,75.44
2019-01-24T01:46:52.627Z,75.96
2019-01-24T01:49:57.354Z,75.61
2019-01-24T01:53:02.093Z,74.91
2019-01-24T01:56:06.611Z,75.69
2019-01-24T01:59:11.343Z,76.49
2019-01-24T02:02:16.091Z,76.08
2019-01-24T02:05:20.708Z,76.45
2019-01-24T02:08:25.147Z,76.83
2019-01-24T02:11:29.859Z,76.43
2019-01-24T02:14:34.308Z,76.96
2019-01-24T02:17:38.751Z,75.84
2019-01-24T02:20:43.282Z,76.99
2019-01-24T02:23:48.061Z,77.60
2019-01-24T02:26:52.793Z,77.64
2019-01-24T02:29:58.037Z,77.71
2019-01-24T02:33:02.479Z,76.74
2019-01-24T02:36:07.215Z,77.39
2019-01-24T02:39:11.686Z,76.32
2019-01-24T02:42:16.124Z,76.22
2019-01-24T02:45:24.028Z,76.52
2019-01-24T02:48:28.476Z,76.17
2019-01-24T02:51:32.921Z,76.89
2019-01-24T02:54:38.913Z,77.24
2019-01-24T02:57:44.227Z,76.60
2019-01-24T03:00:48.680Z,76.31
2019-01-24T03:03:53.560Z,76.15
2019-01-24T03:06:58.285Z,76.70
2019-01-24T03:10:03.129Z,75.98
2019-01-24T03:13:07.563Z,75.83
2019-01-24T03:16:12.378Z,76.01
2019-01-24T03:19:16.812Z,76.13
2019-01-24T03:22:21.549Z,76.89
2019-01-24T03:25:26.264Z,77.06
2019-01-24T03:28:30.715Z,76.24
2019-01-24T03:31:35.168Z,76.60
2019-01-24T03:34:39.605Z,76.55
2019-01-24T03:37:44.065Z,75.90
2019-01-24T03:40:48.616Z,74.92
2019-01-24T03:43:53.317Z,75.98
2019-01-24T03:46:58.049Z,76.58
2019-01-24T03:50:02.491Z,75.63
2019-01-24T03:53:06.947Z,75.74
2019-01-24T03:56:11.731Z,75.86
2019-01-24T03:59:16.178Z,75.50
2019-01-24T04:02:20.884Z,75.71
2019-01-24T04:05:25.816Z,75.57
2019-01-24T04:08:30.267Z,75.68
2019-01-24T04:11:34.970Z,73.87
2019-01-24T04:14:41.430Z,73.79
2019-01-24T04:17:45.593Z,74.56
2019-01-24T04:20:50.046Z,74.88
2019-01-24T04:23:54.488Z,74.42
2019-01-24T04:26:59.250Z,75.87
2019-01-24T04:30:06.223Z,75.72
2019-01-24T04:33:10.674Z,75.25
2019-01-24T04:36:15.185Z,75.35
2019-01-24T04:39:19.631Z,74.94
2019-01-24T04:42:24.532Z,75.04
2019-01-24T04:45:29.264Z,74.56
2019-01-24T04:48:33.711Z,76.35
2019-01-24T04:51:38.162Z,76.38
2019-01-24T04:54:42.949Z,77.17
2019-01-24T04:57:47.789Z,76.44
2019-01-24T05:00:52.513Z,76.45
2019-01-24T05:03:56.968Z,76.02
2019-01-24T05:07:01.412Z,76.06
2019-01-24T05:10:08.753Z,75.68
2019-01-24T05:13:13.482Z,74.75
2019-01-24T05:16:17.923Z,75.58
2019-01-24T05:19:22.376Z,74.17
2019-01-24T05:22:27.171Z,74.91
2019-01-24T05:25:31.600Z,75.57
2019-01-24T05:28:36.088Z,75.50
2019-01-24T05:31:40.520Z,75.32
2019-01-24T05:34:45.276Z,74.57
2019-01-24T05:37:50.004Z,74.62
2019-01-24T05:40:54.722Z,74.14
2019-01-24T05:43:59.170Z,75.02
2019-01-24T05:47:03.625Z,75.01
2019-01-24T05:50:11.988Z,75.18
2019-01-24T05:53:16.461Z,73.85
2019-01-24T05:56:21.140Z,73.86
2019-01-24T05:59:25.589Z,74.30
2019-01-24T06:02:30.426Z,73.71
2019-01-24T06:05:41.558Z,75.07
2019-01-24T06:08:41.313Z,74.70
2019-01-24T06:12:05.090Z,75.58
2019-01-24T06:15:13.854Z,75.36
2019-01-24T06:18:18.304Z,74.56
2019-01-24T06:21:23.052Z,75.21
2019-01-24T06:24:27.522Z,75.24
2019-01-24T06:27:32.336Z,75.60
2019-01-24T06:30:36.773Z,75.37
2019-01-24T06:33:42.369Z,75.02
2019-01-24T06:36:46.815Z,75.40
2019-01-24T06:39:51.573Z,75.46
2019-01-24T06:42:56.374Z,75.73
2019-01-24T06:46:00.807Z,75.77
2019-01-24T06:49:05.530Z,75.15
2019-01-24T06:52:09.974Z,75.59
2019-01-24T06:55:24.260Z,75.99
2019-01-24T06:58:28.944Z,76.66
2019-01-24T07:01:33.407Z,76.45
2019-01-24T07:04:38.190Z,76.65
2019-01-24T07:07:43.024Z,76.04
2019-01-24T07:10:47.479Z,75.45
2019-01-24T07:13:51.923Z,75.02
2019-01-24T07:16:56.706Z,75.26
2019-01-24T07:20:01.162Z,75.37
2019-01-24T07:23:06.170Z,75.09
2019-01-24T07:26:10.622Z,76.35
2019-01-24T07:29:15.085Z,75.33
2019-01-24T07:32:19.850Z,75.74
2019-01-24T07:35:24.293Z,76.11
2019-01-24T07:38:28.748Z,75.86
2019-01-24T07:41:33.532Z,75.60
2019-01-24T07:44:37.984Z,75.56
2019-01-24T07:47:42.432Z,75.75
2019-01-24T07:50:46.886Z,75.10
2019-01-24T07:53:51.637Z,75.08
2019-01-24T07:56:56.077Z,73.54
2019-01-24T08:00:00.535Z,73.43
2019-01-24T08:03:05.422Z,74.19
2019-01-24T08:06:09.874Z,73.90
2019-01-24T08:09:14.670Z,73.42
2019-01-24T08:12:19.402Z,72.60
2019-01-24T08:15:25.769Z,73.53
2019-01-24T08:18:30.501Z,73.79
2019-01-24T08:21:34.957Z,73.90
2019-01-24T08:24:39.404Z,74.72
2019-01-24T08:27:44.288Z,74.78
2019-01-24T08:30:48.739Z,74.12
2019-01-24T08:33:53.180Z,73.72
2019-01-24T08:36:57.961Z,72.87
2019-01-24T08:40:02.556Z,72.63
2019-01-24T08:43:07.322Z,72.33
2019-01-24T08:46:11.778Z,72.20
2019-01-24T08:49:16.481Z,72.75
2019-01-24T08:52:20.932Z,73.05
2019-01-24T08:55:32.372Z,72.96
2019-01-24T08:58:36.810Z,71.56
2019-01-24T09:01:41.266Z,72.01
2019-01-24T09:04:45.980Z,70.85
2019-01-24T09:07:50.702Z,71.78
2019-01-24T09:10:55.153Z,71.45
2019-01-24T09:13:59.848Z,71.74
2019-01-24T09:17:04.370Z,71.65
2019-01-24T09:20:18.495Z,71.85
2019-01-24T09:23:23.263Z,72.31
2019-01-24T09:26:27.995Z,72.25
2019-01-24T09:29:32.726Z,71.18
2019-01-24T09:32:37.449Z,71.44
2019-01-24T09:35:42.184Z,70.46
2019-01-24T09:38:46.915Z,71.66
2019-01-24T09:41:51.367Z,70.66
2019-01-24T09:44:55.811Z,70.45
2019-01-24T09:48:00.594Z,71.05
2019-01-24T09:51:05.321Z,70.04
2019-01-24T09:54:09.834Z,69.95
2019-01-24T09:57:14.278Z,71.31
2019-01-24T10:00:22.468Z,70.75
2019-01-24T10:03:27.222Z,70.52
2019-01-24T10:06:36.246Z,70.01
2019-01-24T10:09:38.418Z,71.03
2019-01-24T10:12:42.938Z,70.37
2019-01-24T10:15:47.673Z,69.91
2019-01-24T10:18:52.109Z,69.44
2019-01-24T10:21:56.828Z,68.02
2019-01-24T10:25:01.554Z,67.65
2019-01-24T10:28:06.069Z,68.18
2019-01-24T10:31:10.820Z,67.39
2019-01-24T10:34:15.317Z,66.98
2019-01-24T10:37:19.762Z,67.74
2019-01-24T10:40:30.064Z,67.39
2019-01-24T10:43:34.573Z,65.46
2019-01-24T10:46:39.325Z,65.72
2019-01-24T10:49:43.708Z,65.57
2019-01-24T10:52:48.438Z,65.05
2019-01-24T10:55:53.169Z,65.48
2019-01-24T10:58:57.684Z,65.23
2019-01-24T11:02:02.949Z,64.55
2019-01-24T11:05:12.382Z,65.51
2019-01-24T11:08:16.893Z,65.21
2019-01-24T11:11:21.324Z,64.78
2019-01-24T11:14:25.766Z,65.07
2019-01-24T11:17:30.216Z,65.22
2019-01-24T11:20:34.904Z,63.96
2019-01-24T11:23:39.347Z,62.98
2019-01-24T11:26:43.783Z,61.41
2019-01-24T11:29:48.226Z,64.50
2019-01-24T11:32:53.217Z,64.91
2019-01-24T11:35:57.647Z,65.41
2019-01-24T11:39:02.371Z,65.36
2019-01-24T11:42:06.809Z,65.51
2019-01-24T11:45:14.358Z,65.58
2019-01-24T11:48:18.795Z,66.39
2019-01-24T11:51:23.232Z,65.97
2019-01-24T11:54:27.677Z,65.51
2019-01-24T11:57:32.123Z,64.98
2019-01-24T12:00:40.611Z,64.58
2019-01-24T12:03:45.336Z,63.46
2019-01-24T12:06:49.771Z,62.87
2019-01-24T12:09:54.217Z,63.43
2019-01-24T12:12:58.651Z,62.95
2019-01-24T12:16:03.088Z,64.50
2019-01-24T12:19:07.539Z,64.68
2019-01-24T12:22:11.971Z,65.78
2019-01-24T12:25:16.483Z,65.25
2019-01-24T12:28:21.233Z,67.65
2019-01-24T12:31:25.968Z,68.44
2019-01-24T12:34:30.422Z,68.73
2019-01-24T12:37:34.874Z,68.92
2019-01-24T12:40:39.315Z,68.27
2019-01-24T12:43:43.769Z,68.31
2019-01-24T12:46:48.491Z,67.71
2019-01-24T12:49:52.941Z,67.81
2019-01-24T12:52:57.526Z,67.78
2019-01-24T12:56:02.282Z,68.80
2019-01-24T12:59:06.732Z,68.96
2019-01-24T13:02:11.176Z,68.86
2019-01-24T13:05:15.690Z,68.29
2019-01-24T13:08:20.135Z,68.10
2019-01-24T13:11:24.915Z,69.54
2019-01-24T13:14:29.639Z,69.89
2019-01-24T13:17:34.373Z,69.44
2019-01-24T13:20:38.821Z,70.03
2019-01-24T13:23:43.276Z,70.27
2019-01-24T13:26:47.710Z,70.00
2019-01-24T13:29:52.472Z,69.92
2019-01-24T13:32:57.306Z,70.42
2019-01-24T13:36:02.044Z,69.93
2019-01-24T13:39:10.242Z,70.05
2019-01-24T13:42:14.675Z,70.21
2019-01-24T13:45:32.550Z,71.34
2019-01-24T13:48:37.001Z,70.84
2019-01-24T13:51:41.789Z,70.18
2019-01-24T13:54:46.314Z,69.44
2019-01-24T13:57:51.122Z,69.59
2019-01-24T14:00:55.570Z,70.92
2019-01-24T14:04:00.659Z,70.64
2019-01-24T14:07:05.420Z,69.85
2019-01-24T14:10:14.459Z,70.61
2019-01-24T14:13:19.211Z,70.72
2019-01-24T14:16:24.119Z,71.11
2019-01-24T14:19:28.572Z,70.66
2019-01-24T14:22:33.022Z,70.42
2019-01-24T14:25:37.475Z,70.40
2019-01-24T14:28:42.029Z,71.78
2019-01-24T14:31:46.465Z,71.91
2019-01-24T14:34:51.385Z,70.96
2019-01-24T14:37:56.108Z,71.40
2019-01-24T14:41:00.940Z,72.32
2019-01-24T14:44:05.531Z,72.57
2019-01-24T14:47:10.298Z,72.22
2019-01-24T14:50:18.657Z,73.13
2019-01-24T14:53:23.448Z,72.88
2019-01-24T14:56:28.106Z,72.76
2019-01-24T14:59:32.910Z,72.76
2019-01-24T15:02:37.345Z,71.81
2019-01-24T15:05:42.162Z,72.21
2019-01-24T15:08:46.615Z,73.28
2019-01-24T15:11:51.267Z,72.96
2019-01-24T15:14:55.854Z,72.66
2019-01-24T15:18:00.791Z,73.54
2019-01-24T15:21:05.532Z,73.85
2019-01-24T15:24:10.388Z,74.40
2019-01-24T15:27:14.979Z,74.06
2019-01-24T15:30:25.894Z,74.35
2019-01-24T15:33:30.869Z,74.72
2019-01-24T15:36:35.720Z,75.78
2019-01-24T15:39:40.672Z,74.49
2019-01-24T15:42:45.742Z,74.14
2019-01-24T15:45:51.958Z,74.59
2019-01-24T15:48:57.781Z,73.75
2019-01-24T15:52:04.285Z,74.66
2019-01-24T15:55:11.046Z,74.71
2019-01-24T15:58:17.159Z,75.17
2019-01-24T16:01:22.982Z,74.93
2019-01-24T16:04:28.619Z,74.03
2019-01-24T16:07:34.473Z,75.09
2019-01-24T16:10:39.996Z,75.28
2019-01-24T16:13:46.074Z,75.12
2019-01-24T16:16:52.063Z,75.62
2019-01-24T16:19:57.518Z,75.20
2019-01-24T16:23:03.938Z,73.99
2019-01-24T16:26:09.620Z,73.36
2019-01-24T16:29:15.183Z,74.11
2019-01-24T16:32:21.305Z,73.89
2019-01-24T16:35:28.161Z,74.28
2019-01-24T16:38:35.583Z,74.77
2019-01-24T16:41:42.567Z,74.24
2019-01-24T16:44:48.499Z,74.49
2019-01-24T16:47:54.810Z,74.71
2019-01-24T16:51:00.953Z,75.16
2019-01-24T16:54:07.461Z,75.24
2019-01-24T16:57:14.052Z,74.98
2019-01-24T17:00:32.547Z,74.87
2019-01-24T17:03:39.793Z,75.34
2019-01-24T17:06:46.379Z,75.30
2019-01-24T17:09:52.603Z,75.94
2019-01-24T17:12:58.787Z,75.86
2019-01-24T17:16:04.232Z,75.78
2019-01-24T17:19:10.217Z,76.47
2019-01-24T17:22:16.138Z,76.16
2019-01-24T17:25:22.851Z,76.37
2019-01-24T17:28:28.082Z,76.36
2019-01-24T17:31:34.040Z,76.55
2019-01-24T17:34:39.817Z,76.92
2019-01-24T17:37:45.999Z,76.94
2019-01-24T17:40:52.165Z,76.33
2019-01-24T17:43:58.583Z,76.76
2019-01-24T17:47:04.295Z,76.18
2019-01-24T17:50:13.530Z,76.42
2019-01-24T17:53:20.180Z,76.61
2019-01-24T17:56:26.024Z,77.07
2019-01-24T17:59:31.678Z,77.38
2019-01-24T18:02:36.777Z,77.18
2019-01-24T18:05:42.604Z,77.10
2019-01-24T18:08:47.754Z,77.19
2019-01-24T18:11:53.772Z,77.38
2019-01-24T18:15:00.256Z,77.43
2019-01-24T18:18:08.887Z,76.95
2019-01-24T18:21:14.968Z,77.51
2019-01-24T18:24:20.604Z,77.60
2019-01-24T18:27:26.903Z,77.51
2019-01-24T18:30:33.157Z,77.20
2019-01-24T18:33:39.048Z,77.23
2019-01-24T18:36:45.412Z,77.49
2019-01-24T18:39:51.786Z,77.66
2019-01-24T18:42:57.866Z,77.69
2019-01-24T18:46:04.199Z,77.65
2019-01-24T18:49:11.292Z,77.72
2019-01-24T18:52:17.808Z,76.44
2019-01-24T18:55:24.515Z,76.57
2019-01-24T18:58:31.345Z,76.64
2019-01-24T19:01:38.597Z,77.10
2019-01-24T19:04:45.745Z,77.24
2019-01-24T19:07:52.659Z,77.50
2019-01-24T19:10:59.649Z,77.24
2019-01-24T19:14:06.730Z,77.69
2019-01-24T19:17:13.394Z,77.42
2019-01-24T19:20:20.746Z,77.08
2019-01-24T19:23:27.129Z,77.97
2019-01-24T19:26:34.020Z,78.04
2019-01-24T19:29:41.406Z,78.03
2019-01-24T19:32:48.075Z,77.68
2019-01-24T19:36:00.243Z,77.98
2019-01-24T19:39:04.582Z,78.54
2019-01-24T19:42:11.781Z,77.76
2019-01-24T19:45:23.733Z,78.06
2019-01-24T19:48:30.589Z,77.66
2019-01-24T19:51:37.296Z,77.64
2019-01-24T19:54:44.370Z,77.41
2019-01-24T19:57:51.338Z,76.96
2019-01-24T20:00:58.588Z,76.70
2019-01-24T20:04:05.384Z,76.86
2019-01-24T20:07:12.302Z,77.06
2019-01-24T20:10:32.625Z,77.40
2019-01-24T20:13:39.215Z,77.44
2019-01-24T20:16:46.408Z,77.89
2019-01-24T20:19:53.039Z,77.54
2019-01-24T20:23:00.004Z,77.63
2019-01-24T20:26:06.782Z,77.94
2019-01-24T20:29:13.583Z,77.97
2019-01-24T20:32:20.519Z,77.62
2019-01-24T20:35:36.253Z,78.26
2019-01-24T20:38:42.314Z,78.08
2019-01-24T20:41:48.898Z,77.91
2019-01-24T20:44:55.399Z,77.93
2019-01-24T20:48:01.942Z,78.11
2019-01-24T20:51:08.147Z,78.47
2019-01-24T20:54:14.309Z,78.22
2019-01-24T20:57:20.361Z,78.29
2019-01-24T21:00:26.753Z,78.57
2019-01-24T21:03:33.019Z,77.91
2019-01-24T21:06:39.040Z,78.05
2019-01-24T21:09:44.888Z,78.11
2019-01-24T21:12:51.156Z,78.52
2019-01-24T21:15:57.509Z,78.63
2019-01-24T21:19:03.139Z,78.74
2019-01-24T21:22:08.835Z,78.80
2019-01-24T21:25:17.685Z,78.54
2019-01-24T21:28:23.006Z,78.18
2019-01-24T21:31:28.324Z,78.13
2019-01-24T21:34:33.959Z,78.40
2019-01-24T21:37:39.446Z,78.67
2019-01-24T21:40:44.315Z,78.26
2019-01-24T21:43:49.898Z,78.69
2019-01-24T21:46:55.070Z,78.79
2019-01-24T21:50:00.509Z,78.64
2019-01-24T21:53:06.106Z,78.01
2019-01-24T21:56:10.754Z,77.66
2019-01-24T21:59:15.208Z,77.73
2019-01-24T22:02:20.003Z,77.54
2019-01-24T22:05:25.457Z,76.82
2019-01-24T22:08:29.899Z,76.48
2019-01-24T22:11:34.609Z,76.52
2019-01-24T22:14:39.057Z,76.08
2019-01-24T22:17:43.503Z,76.18
2019-01-24T22:20:51.691Z,76.30
2019-01-24T22:23:54.464Z,76.76
2019-01-24T22:26:59.195Z,76.81
2019-01-24T22:30:05.753Z,76.64
2019-01-24T22:33:10.695Z,76.10
2019-01-24T22:36:15.138Z,76.50
2019-01-24T22:39:19.594Z,76.41
2019-01-24T22:42:24.485Z,76.81
2019-01-24T22:45:29.497Z,76.85
2019-01-24T22:48:33.945Z,77.11
2019-01-24T22:51:38.769Z,77.15
2019-01-24T22:54:43.499Z,77.29
2019-01-24T22:57:47.952Z,77.42
2019-01-24T23:01:12.927Z,76.73
2019-01-24T23:04:17.760Z,76.69
2019-01-24T23:07:22.503Z,76.01
2019-01-24T23:10:27.218Z,75.75
2019-01-24T23:13:32.107Z,75.75
2019-01-24T23:16:36.477Z,74.97
2019-01-24T23:19:40.930Z,74.62
2019-01-24T23:22:45.376Z,75.25
2019-01-24T23:25:50.161Z,75.38
2019-01-24T23:28:54.612Z,75.47
2019-01-24T23:31:59.057Z,75.88
2019-01-24T23:35:03.509Z,76.44
2019-01-24T23:38:07.959Z,75.75
2019-01-24T23:41:12.461Z,76.08
2019-01-24T23:44:17.210Z,76.64
2019-01-24T23:47:21.658Z,74.26
2019-01-24T23:50:26.121Z,73.54
2019-01-24T23:53:30.890Z,71.16
2019-01-24T23:56:35.344Z,70.09
2019-01-24T23:59:39.807Z,70.18
